Portada
METAR-TAF:

METAR-TAF

Aeroports :

Orlhac, França

latitud: 44-53N, longitud: 002-25E, altitud: 639 m

Observació

L'informe es va fer fa 19 minuts, a les 06:30 UTC
Vent 4 kt del Sud-Oest
Temperatura 4°C
Humitat 100%
Pressió 1017 hPa
Visibilitat: 4500 m
plugim, boirina

METAR: LFLW 250630Z AUTO 22004KT 4500 -DZ BR ////// 04/04 Q1017

Hora: 07:49 (06:49 UTC)

Pronòstic

L'informe es va fer fa 1 hora i 49 minuts, a les 05:00 UTC
Pronòstic vàlid del 25 a les 06 UTC al 25 a les 15 UTC
Vent 2 kt amb direcció variable
Visibilitat 10 km o més
Cel ennuvolat a una alçada de 700 ft
Evolucionant progressivament
l' 25 a les 06 UTC al 25 a les 08 UTC
Vent 10 kt del Sud/Sud-Oest
Temporalment
l' 25 a les 06 UTC al 25 a les 15 UTC
Visibilitat: 2000 m
Cel cobert a una alçada de 200 ft
pluja, plugim

TAF: LFLW 250500Z 2506/2515 VRB02KT 9999 BKN007 BECMG 2506/2508 21010KT TEMPO 2506/2515 2000 RADZ OVC002

Observacions i pronòstics meteorològics de més de 4000 aeroports (METAR i TAF).

Les estacions disponibles són els punts grocs i vermells al mapa.

Posi el ratolí al punt desitjat per veure el nom de l'estació.

Feu clic per veure les observacions i els pronòstics meteorològics.

Per canviar el mapa: feu clic els botons verds amb una creu de color negre per apropar; al botó verd amb un guió per allunyar la imatge; o en les fletxes verdes per a mapes adjacents.


METAR-TAF: